Time;durP1;ratioP1;P1;durP2;ratioP2;P2;SDS_P1;SDS_P2;PMS_P1;PMS_P2;Temp;Humidity;BMP_temperature;BMP_pressure;BME280_temperature;BME280_humidity;BME280_pressure;Samples;Min_cycle;Max_cycle;Signal;HPM_P1;HPM_P2
2022/04/05 00:02:12;;;;;;;9.30;6.20;;;;;;;4.22;74.08;96217.22;5052585;28;20545;-62
2022/04/05 00:04:37;;;;;;;8.93;6.50;;;;;;;4.29;74.12;96194.66;5052549;28;20174;-61
2022/04/05 00:07:03;;;;;;;9.03;6.13;;;;;;;4.41;74.20;96194.84;5050604;28;20178;-61
2022/04/05 00:09:28;;;;;;;7.70;6.40;;;;;;;4.36;73.38;96195.44;5050253;28;20216;-62
2022/04/05 00:11:54;;;;;;;9.17;6.57;;;;;;;4.43;73.85;96190.25;5052198;28;20594;-61
2022/04/05 00:14:19;;;;;;;7.37;6.10;;;;;;;4.35;73.65;96191.25;5052500;28;20263;-61
2022/04/05 00:16:45;;;;;;;8.73;6.30;;;;;;;4.42;73.93;96189.44;5051203;28;20221;-61
2022/04/05 00:19:10;;;;;;;7.27;6.20;;;;;;;4.33;74.57;96187.28;5052508;28;20178;-61
2022/04/05 00:21:36;;;;;;;8.77;6.50;;;;;;;4.34;73.81;96174.13;5050765;28;20202;-63
2022/04/05 00:24:01;;;;;;;6.80;5.93;;;;;;;4.45;73.66;96181.28;5052126;28;20288;-61
2022/04/05 00:26:26;;;;;;;7.33;6.13;;;;;;;4.32;74.15;96173.50;5052313;28;20193;-61
2022/04/05 00:28:52;;;;;;;7.47;6.70;;;;;;;4.36;74.31;96173.91;5055900;28;20715;-61
2022/04/05 00:31:17;;;;;;;9.00;6.50;;;;;;;4.43;73.65;96177.28;5055313;28;20265;-60
2022/04/05 00:33:42;;;;;;;9.17;6.70;;;;;;;4.24;74.38;96172.91;5055804;28;20585;-60
2022/04/05 00:36:08;;;;;;;7.13;6.10;;;;;;;4.29;74.71;96173.91;5054423;28;20202;-60
2022/04/05 00:38:33;;;;;;;6.93;6.23;;;;;;;4.37;74.54;96180.69;5055279;28;20217;-60
2022/04/05 00:40:59;;;;;;;7.23;6.23;;;;;;;4.42;73.72;96181.66;5055093;28;20283;-60
2022/04/05 00:43:25;;;;;;;9.20;6.40;;;;;;;4.40;74.04;96180.28;5055899;28;20181;-60
2022/04/05 00:45:51;;;;;;;7.50;6.10;;;;;;;4.48;73.95;96177.47;5054577;28;20251;-60
2022/04/05 00:48:35;;;;;;;6.63;5.87;;;;;;;4.50;73.77;96188.44;5054371;28;20186;-62
2022/04/05 00:51:00;;;;;;;6.80;5.87;;;;;;;4.45;74.17;96186.47;5053997;28;20190;-60
2022/04/05 00:53:28;;;;;;;9.30;6.77;;;;;;;4.42;74.11;96184.25;5055725;28;20196;-59
2022/04/05 00:55:57;;;;;;;8.97;6.50;;;;;;;4.46;73.85;96176.84;5055464;28;20272;-60
2022/04/05 00:58:24;;;;;;;8.93;6.10;;;;;;;4.56;73.64;96172.88;5053563;28;20527;-60
2022/04/05 01:00:52;;;;;;;8.03;5.97;;;;;;;4.58;74.02;96164.88;5034055;28;20733;-60
2022/04/05 01:03:18;;;;;;;7.97;5.83;;;;;;;4.46;73.95;96171.66;5048614;28;20236;-61
2022/04/05 01:05:46;;;;;;;7.27;6.20;;;;;;;4.49;74.08;96159.09;5054662;28;20201;-61
2022/04/05 01:08:14;;;;;;;7.37;6.13;;;;;;;4.55;73.30;96160.91;5055548;28;20232;-60
2022/04/05 01:10:41;;;;;;;10.20;6.53;;;;;;;4.59;73.53;96164.66;5053671;28;20280;-60
2022/04/05 01:13:07;;;;;;;8.43;5.60;;;;;;;4.54;73.80;96153.31;5055232;28;20619;-60
2022/04/05 01:15:33;;;;;;;8.43;5.93;;;;;;;4.44;74.34;96147.75;5054623;28;20232;-60
2022/04/05 01:18:00;;;;;;;8.23;6.13;;;;;;;4.55;73.83;96139.34;5054904;28;20271;-60
2022/04/05 01:20:25;;;;;;;7.50;6.63;;;;;;;4.52;74.06;96139.72;5053743;28;20216;-60
2022/04/05 01:22:55;;;;;;;7.53;5.47;;;;;;;4.49;73.60;96140.16;5053764;28;20178;-60
2022/04/05 01:25:21;;;;;;;7.00;5.50;;;;;;;4.48;73.72;96138.53;5054928;28;20182;-62
2022/04/05 01:27:47;;;;;;;8.07;6.10;;;;;;;4.49;74.41;96132.38;5054407;28;20185;-62
2022/04/05 01:30:13;;;;;;;6.77;5.97;;;;;;;4.58;74.34;96134.53;5054534;28;20182;-62
2022/04/05 01:32:39;;;;;;;6.87;6.03;;;;;;;4.53;74.74;96138.72;5053127;28;20264;-61
2022/04/05 01:35:06;;;;;;;8.27;6.10;;;;;;;4.46;74.86;96148.31;5054107;28;20190;-62
2022/04/05 01:37:33;;;;;;;7.20;6.13;;;;;;;4.51;75.85;96146.72;5043693;28;20193;-60
2022/04/05 01:39:59;;;;;;;7.17;5.43;;;;;;;4.57;76.20;96153.69;5054588;28;20229;-61
2022/04/05 01:42:25;;;;;;;8.50;6.30;;;;;;;4.51;77.10;96138.94;5053594;28;20174;-61
2022/04/05 01:44:50;;;;;;;8.17;6.20;;;;;;;4.47;76.87;96139.53;5054512;28;20673;-62
2022/04/05 01:47:17;;;;;;;7.13;5.87;;;;;;;4.47;77.26;96136.94;5052743;28;20189;-62
2022/04/05 01:49:45;;;;;;;7.20;6.20;;;;;;;4.47;76.98;96132.56;5053387;28;20182;-62
2022/04/05 01:52:11;;;;;;;8.17;5.57;;;;;;;4.55;76.96;96123.75;5054336;28;20186;-62
2022/04/05 01:54:38;;;;;;;8.57;6.10;;;;;;;4.53;76.81;96116.19;5054557;28;20197;-62
2022/04/05 01:57:04;;;;;;;6.57;5.67;;;;;;;4.58;76.88;96118.94;5054347;28;20182;-61
2022/04/05 01:59:32;;;;;;;11.50;6.47;;;;;;;4.52;77.07;96113.78;5053220;28;20661;-60
2022/04/05 02:01:57;;;;;;;10.07;6.40;;;;;;;4.41;78.66;96107.44;5037773;28;20205;-62
2022/04/05 02:04:23;;;;;;;7.47;6.23;;;;;;;4.42;79.86;96109.03;5054164;28;20186;-61
2022/04/05 02:06:49;;;;;;;8.17;6.40;;;;;;;4.35;81.29;96115.22;5053968;28;20268;-61
2022/04/05 02:09:15;;;;;;;8.43;6.43;;;;;;;4.38;82.55;96112.25;5054305;28;20196;-60
2022/04/05 02:11:43;;;;;;;8.70;6.60;;;;;;;4.28;82.62;96104.91;5054286;28;20186;-60
2022/04/05 02:14:09;;;;;;;8.03;6.53;;;;;;;4.14;82.27;96088.56;5053974;28;20189;-60
2022/04/05 02:16:34;;;;;;;8.67;6.53;;;;;;;4.15;82.85;96095.34;5054379;28;20182;-62
2022/04/05 02:19:00;;;;;;;9.00;6.60;;;;;;;4.11;83.50;96101.13;5052444;28;20188;-60
2022/04/05 02:21:25;;;;;;;8.27;6.33;;;;;;;4.25;83.31;96096.69;5052363;28;20210;-61
2022/04/05 02:23:51;;;;;;;8.03;6.73;;;;;;;4.23;84.86;96104.72;5053328;28;20631;-60
2022/04/05 02:26:16;;;;;;;7.70;6.80;;;;;;;4.19;84.21;96099.13;5053856;28;20184;-60
2022/04/05 02:28:42;;;;;;;7.20;6.00;;;;;;;4.12;84.14;96094.97;5053195;28;20227;-61
2022/04/05 02:31:08;;;;;;;7.93;6.17;;;;;;;4.14;83.66;96090.34;5053585;28;20653;-60
2022/04/05 02:33:33;;;;;;;7.17;6.37;;;;;;;4.25;84.61;96092.31;5053430;28;20580;-62
2022/04/05 02:35:59;;;;;;;8.17;6.53;;;;;;;4.22;84.42;96082.38;5051085;28;20642;-60
2022/04/05 02:38:24;;;;;;;7.83;6.40;;;;;;;4.21;84.33;96087.75;5053643;28;20216;-61
2022/04/05 02:40:50;;;;;;;8.03;6.27;;;;;;;4.22;84.00;96086.75;5051830;28;20237;-60
2022/04/05 02:43:15;;;;;;;7.27;6.47;;;;;;;4.14;83.63;96085.97;5053543;28;20193;-60
2022/04/05 02:45:41;;;;;;;8.60;6.67;;;;;;;4.16;84.49;96086.56;5053506;28;20551;-60
2022/04/05 02:48:06;;;;;;;7.40;6.47;;;;;;;4.19;84.21;96088.75;5051807;28;20178;-60
2022/04/05 02:50:32;;;;;;;8.30;6.63;;;;;;;4.16;85.00;96083.97;5052607;28;20194;-62
2022/04/05 02:52:57;;;;;;;9.17;6.83;;;;;;;4.12;83.97;96087.94;5053003;28;20635;-62
2022/04/05 02:55:23;;;;;;;7.33;6.57;;;;;;;4.22;83.63;96090.16;5052238;28;20189;-60
2022/04/05 02:57:50;;;;;;;7.23;6.37;;;;;;;4.13;82.80;96099.91;5053487;28;20213;-61
2022/04/05 03:00:17;;;;;;;9.87;6.77;;;;;;;4.19;82.83;96087.94;5053375;28;20209;-60
2022/04/05 03:02:44;;;;;;;9.73;6.23;;;;;;;4.30;83.08;96086.50;5052015;28;20264;-61
2022/04/05 03:05:10;;;;;;;7.80;6.60;;;;;;;4.32;82.59;96102.69;5051754;28;20277;-63
2022/04/05 03:07:37;;;;;;;7.47;6.20;;;;;;;4.19;83.00;96096.53;5053206;28;20189;-60
2022/04/05 03:10:08;;;;;;;8.40;6.33;;;;;;;4.32;83.71;96100.09;5053079;28;20213;-60
2022/04/05 03:12:35;;;;;;;6.67;5.97;;;;;;;4.23;83.12;96111.69;5052814;28;20190;-60
2022/04/05 03:15:07;;;;;;;9.27;6.80;;;;;;;4.30;83.46;96104.66;5052996;28;20273;-61
2022/04/05 03:17:33;;;;;;;8.60;6.83;;;;;;;4.32;84.33;96113.06;5051482;28;20171;-61
2022/04/05 03:19:59;;;;;;;7.30;6.60;;;;;;;4.23;82.43;96111.69;5052639;28;20695;-60
2022/04/05 03:22:25;;;;;;;11.50;6.90;;;;;;;4.29;82.58;96116.06;5052852;28;20189;-61
2022/04/05 04:15:14;;;;;;;8.13;6.53;;;;;;;4.35;84.75;96126.41;5009155;28;20568;-61
2022/04/05 04:17:40;;;;;;;8.27;6.70;;;;;;;4.33;83.82;96117.25;5029400;23;20238;-61
2022/04/05 04:20:06;;;;;;;6.80;6.10;;;;;;;4.37;84.37;96118.44;5039042;28;20236;-62
2022/04/05 04:22:31;;;;;;;7.37;6.67;;;;;;;4.41;85.36;96114.41;5049053;28;20186;-62
2022/04/05 04:24:57;;;;;;;11.17;6.60;;;;;;;4.41;83.75;96111.81;5049088;28;20188;-61
2022/04/05 04:27:24;;;;;;;7.53;6.73;;;;;;;4.37;84.58;96114.03;5048474;28;20193;-63
2022/04/05 04:29:50;;;;;;;9.47;6.77;;;;;;;4.37;84.44;96121.00;5041398;28;20189;-62
2022/04/05 04:32:15;;;;;;;7.40;5.90;;;;;;;4.40;84.10;96098.06;5028642;28;20645;-62
2022/04/05 04:34:41;;;;;;;7.13;6.03;;;;;;;4.25;84.50;96096.69;5028675;28;20208;-63
2022/04/05 04:37:07;;;;;;;7.53;6.20;;;;;;;4.14;85.23;96100.72;5028537;28;20571;-62
2022/04/05 04:39:33;;;;;;;9.17;6.47;;;;;;;4.18;85.13;96094.13;5048758;28;20182;-61
2022/04/05 04:41:59;;;;;;;7.10;6.33;;;;;;;4.08;86.84;96079.00;5048891;28;20178;-63
2022/04/05 04:44:25;;;;;;;8.63;6.20;;;;;;;4.15;86.16;96086.75;5037034;28;20206;-62
2022/04/05 04:46:50;;;;;;;8.50;6.67;;;;;;;4.18;87.38;96089.72;5029896;28;20191;-61
2022/04/05 04:49:15;;;;;;;9.20;7.10;;;;;;;4.14;88.46;96088.56;5013700;28;20190;-62
2022/04/05 04:51:41;;;;;;;7.50;6.50;;;;;;;4.18;88.26;96086.34;5049117;28;20189;-61
2022/04/05 04:54:06;;;;;;;7.93;6.57;;;;;;;4.05;89.81;96078.63;5029010;28;20194;-62
2022/04/05 04:56:32;;;;;;;8.77;6.83;;;;;;;4.05;89.51;96078.63;5046357;28;20178;-63
2022/04/05 04:58:57;;;;;;;9.83;7.20;;;;;;;3.94;89.43;96092.19;5046573;28;20179;-62
2022/04/05 05:01:23;;;;;;;8.17;6.27;;;;;;;3.95;89.98;96101.56;5030332;28;20186;-62
2022/04/05 05:03:48;;;;;;;10.13;6.87;;;;;;;4.03;90.88;96098.75;5048730;28;20569;-62
2022/04/05 05:06:13;;;;;;;10.67;7.20;;;;;;;4.03;90.72;96093.56;5037423;28;20215;-62
2022/04/05 05:08:39;;;;;;;9.37;7.10;;;;;;;3.94;92.30;96099.97;5027704;28;20193;-62
2022/04/05 05:11:04;;;;;;;7.13;6.43;;;;;;;4.09;91.11;96103.13;5028526;28;20182;-62
2022/04/05 05:13:31;;;;;;;7.97;6.77;;;;;;;4.18;90.30;96105.28;5046042;28;20201;-61
2022/04/05 05:15:58;;;;;;;9.20;6.83;;;;;;;4.03;91.61;96109.13;5028203;28;20191;-62
2022/04/05 05:18:24;;;;;;;9.00;7.37;;;;;;;4.04;92.12;96108.13;5031475;28;20321;-62
2022/04/05 05:20:49;;;;;;;7.83;7.03;;;;;;;3.98;91.84;96104.53;5034854;28;20597;-61
2022/04/05 05:23:14;;;;;;;9.40;7.47;;;;;;;4.11;92.59;96108.91;5034084;28;20748;-62
2022/04/05 05:25:40;;;;;;;11.27;7.27;;;;;;;4.15;91.07;96123.88;5034709;28;20557;-62
2022/04/05 05:28:05;;;;;;;10.03;7.10;;;;;;;4.19;92.76;96119.06;5022101;28;20252;-62
2022/04/05 05:30:32;;;;;;;9.67;7.37;;;;;;;4.23;92.93;96120.28;5019833;28;20190;-62
2022/04/05 05:32:57;;;;;;;7.93;7.13;;;;;;;4.06;92.63;96116.50;5035327;28;20188;-61
2022/04/05 05:35:22;;;;;;;10.30;7.23;;;;;;;4.17;90.80;96123.66;5034933;28;20213;-62
2022/04/05 05:37:50;;;;;;;10.17;6.93;;;;;;;4.16;91.77;96127.25;5020846;28;20202;-63
2022/04/05 05:40:17;;;;;;;7.47;6.77;;;;;;;4.10;93.06;96121.09;5015423;28;20187;-64
2022/04/05 05:43:03;;;;;;;12.17;7.10;;;;;;;4.00;92.75;96117.31;5032804;28;20202;-62
2022/04/05 05:45:32;;;;;;;8.17;7.33;;;;;;;4.05;92.92;96125.28;5028334;28;20254;-63
2022/04/05 05:47:57;;;;;;;7.17;6.47;;;;;;;4.18;94.75;96126.03;5005678;28;20662;-61
2022/04/05 05:50:24;;;;;;;8.20;6.80;;;;;;;4.10;92.67;96125.47;4997343;28;20215;-64
2022/04/05 05:52:49;;;;;;;7.20;6.50;;;;;;;4.19;93.68;96130.22;5033261;28;20217;-62
2022/04/05 05:55:16;;;;;;;8.37;6.93;;;;;;;4.34;92.87;96139.59;5034349;28;20225;-62
2022/04/05 05:57:42;;;;;;;6.53;5.87;;;;;;;4.34;92.46;96134.41;5016822;28;20208;-61
2022/04/05 06:00:10;;;;;;;8.27;6.83;;;;;;;4.08;93.87;96130.84;5034456;28;20189;-61
2022/04/05 06:02:40;;;;;;;9.37;7.17;;;;;;;4.14;95.22;96135.22;5040576;23;20234;-61
2022/04/05 06:05:06;;;;;;;9.00;6.90;;;;;;;4.23;97.29;96135.03;5033264;28;20218;-61
2022/04/05 06:07:32;;;;;;;9.30;7.50;;;;;;;4.14;97.31;96129.25;5032934;28;20214;-62
2022/04/05 06:09:58;;;;;;;11.40;7.17;;;;;;;4.17;96.04;96137.44;5033638;28;20272;-62
2022/04/05 06:12:23;;;;;;;8.93;7.37;;;;;;;4.23;97.04;96141.03;5033507;28;20640;-62
2022/04/05 06:14:48;;;;;;;9.73;7.40;;;;;;;4.19;96.81;96134.63;5033662;28;20179;-61
2022/04/05 06:17:14;;;;;;;7.80;6.63;;;;;;;4.30;97.26;96144.38;5034100;28;20233;-62
2022/04/05 06:19:39;;;;;;;10.70;7.33;;;;;;;4.29;97.08;96140.19;5033723;28;20187;-61
2022/04/05 06:22:04;;;;;;;8.40;7.13;;;;;;;4.19;96.61;96150.19;5015990;28;20201;-62
2022/04/05 06:24:30;;;;;;;7.37;6.53;;;;;;;4.19;96.17;96148.38;5033675;28;20206;-61
2022/04/05 06:26:56;;;;;;;7.87;7.07;;;;;;;4.35;96.46;96146.34;5032573;28;20637;-62
2022/04/05 06:29:21;;;;;;;8.53;7.17;;;;;;;4.24;96.63;96146.97;5033242;28;20331;-62
2022/04/05 06:31:47;;;;;;;7.47;6.53;;;;;;;4.43;96.77;96148.75;5033330;28;20278;-62
2022/04/05 06:34:12;;;;;;;7.90;7.10;;;;;;;4.47;95.76;96142.13;5033265;28;21918;-61
2022/04/05 06:36:37;;;;;;;12.50;7.17;;;;;;;4.39;96.44;96150.97;5033285;28;20213;-61
2022/04/05 06:39:03;;;;;;;8.20;6.77;;;;;;;4.50;96.23;96144.34;5033252;28;20194;-61
2022/04/05 06:41:28;;;;;;;8.40;7.47;;;;;;;4.34;96.92;96155.97;5032546;28;20620;-62
2022/04/05 06:43:54;;;;;;;9.83;7.07;;;;;;;4.46;97.49;96151.72;5033200;28;20321;-62
2022/04/05 06:46:19;;;;;;;11.07;7.33;;;;;;;4.47;96.74;96155.91;5032973;28;20214;-62
2022/04/05 06:48:45;;;;;;;10.07;7.23;;;;;;;4.51;95.75;96151.91;5033616;28;20190;-62
2022/04/05 06:51:10;;;;;;;9.33;7.07;;;;;;;4.63;96.19;96151.25;5033149;28;20190;-62
2022/04/05 06:53:35;;;;;;;9.33;6.93;;;;;;;4.63;95.64;96152.06;5033250;28;20182;-62
2022/04/05 06:56:01;;;;;;;6.93;6.13;;;;;;;4.62;95.41;96149.69;5015328;28;20174;-63
2022/04/05 06:58:26;;;;;;;8.27;6.20;;;;;;;4.58;95.03;96151.88;5015487;28;20190;-61
2022/04/05 07:00:52;;;;;;;7.77;6.23;;;;;;;4.53;95.00;96152.50;5032659;28;20237;-61
2022/04/05 07:03:17;;;;;;;9.53;6.23;;;;;;;4.53;95.08;96149.91;5015040;28;20195;-63
2022/04/05 07:05:43;;;;;;;7.47;6.43;;;;;;;4.69;94.44;96140.06;5033074;28;20265;-61
2022/04/05 07:08:10;;;;;;;8.63;6.80;;;;;;;4.83;94.09;96145.03;5031903;28;20546;-62
2022/04/05 07:10:37;;;;;;;7.27;6.00;;;;;;;4.88;93.27;96126.22;5020305;28;20183;-63
2022/04/05 07:13:03;;;;;;;6.93;5.73;;;;;;;4.96;92.55;96133.75;5029238;28;20789;-63
2022/04/05 07:15:28;;;;;;;7.57;6.73;;;;;;;7.02;100.00;96130.78;5032238;28;20182;-62
2022/04/05 07:17:54;;;;;;;8.23;5.90;;;;;;;5.79;87.78;96134.47;5032543;28;20261;-63
2022/04/05 07:20:19;;;;;;;6.50;5.30;;;;;;;5.54;90.12;96133.63;5025990;28;20194;-62
2022/04/05 07:22:49;;;;;;;8.27;5.70;;;;;;;5.31;90.71;96137.56;5025882;28;20183;-64
2022/04/05 07:25:16;;;;;;;6.70;5.53;;;;;;;5.14;90.13;96133.06;5032269;28;20190;-63
2022/04/05 07:27:44;;;;;;;6.63;5.53;;;;;;;5.01;91.86;96137.31;5032487;28;20190;-62
2022/04/05 07:30:10;;;;;;;6.47;5.70;;;;;;;5.15;91.28;96148.47;5032203;28;20183;-62
2022/04/05 07:32:37;;;;;;;6.97;5.70;;;;;;;5.21;91.86;96149.44;5032422;28;20244;-63
2022/04/05 07:35:02;;;;;;;6.47;5.57;;;;;;;5.19;91.07;96143.63;5031771;28;20178;-62
2022/04/05 07:37:30;;;;;;;7.33;5.60;;;;;;;5.17;90.73;96145.66;5031822;28;20262;-62
2022/04/05 07:39:55;;;;;;;6.23;5.63;;;;;;;5.26;91.97;96139.22;5031042;28;20182;-62
2022/04/05 07:42:20;;;;;;;7.23;5.90;;;;;;;5.29;90.54;96142.19;5031930;28;20233;-62
2022/04/05 07:44:46;;;;;;;8.80;5.80;;;;;;;5.26;90.37;96121.81;5031758;28;20680;-63
2022/04/05 07:47:11;;;;;;;7.90;6.07;;;;;;;5.39;90.16;96129.53;5032309;28;20633;-62
2022/04/05 07:49:36;;;;;;;8.07;5.80;;;;;;;5.35;90.48;96124.97;5032333;28;20269;-65
2022/04/05 07:52:02;;;;;;;6.93;5.43;;;;;;;5.34;89.96;96142.38;5031880;28;20190;-62
2022/04/05 07:54:28;;;;;;;10.03;5.60;;;;;;;5.32;89.49;96144.38;5031864;28;20270;-62
2022/04/05 07:56:53;;;;;;;9.20;6.47;;;;;;;5.30;89.79;96143.78;5031227;28;20584;-63
2022/04/05 07:59:18;;;;;;;11.53;6.47;;;;;;;5.37;89.38;96131.53;5029207;28;20194;-63
2022/04/05 08:01:44;;;;;;;7.17;5.53;;;;;;;5.51;90.16;96139.25;5031575;28;20234;-64
2022/04/05 08:04:09;;;;;;;6.60;5.67;;;;;;;5.55;90.27;96135.22;5031662;28;20691;-63
2022/04/05 08:06:35;;;;;;;6.10;4.97;;;;;;;5.55;89.72;96141.22;5030869;28;20186;-63
2022/04/05 08:09:00;;;;;;;6.27;5.67;;;;;;;5.70;89.00;96141.72;5013492;28;20182;-64
2022/04/05 08:11:26;;;;;;;9.23;5.80;;;;;;;5.96;89.00;96137.34;5030783;28;20275;-62
2022/04/05 08:13:52;;;;;;;5.97;5.37;;;;;;;6.12;87.64;96135.00;5031692;28;20179;-63
2022/04/05 08:16:18;;;;;;;6.10;5.50;;;;;;;6.11;87.97;96128.19;5031966;28;20217;-63
2022/04/05 08:18:43;;;;;;;7.90;5.50;;;;;;;6.28;86.23;96140.66;5031960;28;20206;-63
2022/04/05 08:21:09;;;;;;;6.77;5.30;;;;;;;6.38;87.19;96151.34;5031781;28;20182;-63
2022/04/05 08:23:34;;;;;;;6.10;5.50;;;;;;;6.46;87.05;96151.88;5031666;28;20474;-64
2022/04/05 08:25:59;;;;;;;6.47;5.10;;;;;;;6.48;87.05;96149.84;5031434;28;20619;-62
2022/04/05 08:28:26;;;;;;;5.97;5.10;;;;;;;6.36;86.92;96148.97;5031284;28;20201;-63
2022/04/05 08:30:51;;;;;;;6.43;5.50;;;;;;;6.45;88.06;96150.28;5031844;28;20537;-63
2022/04/05 08:33:16;;;;;;;6.17;5.07;;;;;;;6.42;87.40;96153.31;5031643;28;20195;-64
2022/04/05 08:35:42;;;;;;;6.07;5.37;;;;;;;6.47;87.27;96155.25;5031665;28;20183;-63
2022/04/05 08:38:07;;;;;;;5.97;5.27;;;;;;;6.37;86.47;96160.16;5013800;28;20187;-63
2022/04/05 08:40:33;;;;;;;6.97;5.00;;;;;;;6.49;86.79;96164.44;5030637;28;20191;-63
2022/04/05 08:42:59;;;;;;;5.70;5.10;;;;;;;6.59;86.79;96167.34;5012905;28;20293;-63
2022/04/05 08:45:26;;;;;;;6.17;5.07;;;;;;;6.60;87.60;96162.94;5031460;28;20191;-62
2022/04/05 08:47:59;;;;;;;5.40;4.87;;;;;;;6.80;87.68;96167.94;5013227;28;20558;-62
2022/04/05 08:50:31;;;;;;;7.33;5.27;;;;;;;6.87;86.66;96171.25;5033413;28;20183;-61
2022/04/05 08:52:59;;;;;;;5.90;5.30;;;;;;;6.75;88.06;96170.38;5035269;28;20217;-64
2022/04/05 08:55:25;;;;;;;7.43;5.40;;;;;;;6.82;87.12;96173.72;5035094;28;20540;-62
2022/04/05 08:57:51;;;;;;;7.93;5.00;;;;;;;6.74;88.17;96171.41;5034930;28;20190;-63
2022/04/05 09:00:22;;;;;;;5.87;4.93;;;;;;;6.77;88.27;96171.78;5034953;28;20183;-62
2022/04/05 09:02:53;;;;;;;6.53;4.90;;;;;;;6.93;88.52;96180.81;5034906;28;20273;-62
2022/04/05 09:05:35;;;;;;;5.50;4.90;;;;;;;7.19;87.60;96175.25;5034479;28;20197;-63
2022/04/05 09:08:21;;;;;;;6.90;5.47;;;;;;;7.36;87.18;96172.84;5034327;28;20183;-65
2022/04/05 09:11:08;;;;;;;6.93;4.97;;;;;;;7.56;86.90;96168.16;5034693;28;20190;-63
2022/04/05 09:13:34;;;;;;;4.97;4.43;;;;;;;7.61;84.65;96159.66;5034752;28;20183;-62
2022/04/05 09:16:04;;;;;;;5.77;4.60;;;;;;;7.64;84.78;96161.81;5016781;28;20559;-63
2022/04/05 09:18:36;;;;;;;4.90;4.40;;;;;;;7.57;85.54;96168.97;5034476;28;20539;-63
2022/04/05 09:21:03;;;;;;;4.97;4.43;;;;;;;7.70;85.21;96166.13;5034505;28;20240;-63
2022/04/05 09:23:33;;;;;;;5.67;4.63;;;;;;;7.81;84.44;96166.16;5035021;28;20198;-63
2022/04/05 09:26:02;;;;;;;5.67;4.53;;;;;;;7.62;84.86;96169.09;5034937;28;20183;-62
2022/04/05 09:28:35;;;;;;;7.50;5.07;;;;;;;7.66;84.90;96171.03;5034381;28;20209;-62
2022/04/05 09:31:04;;;;;;;7.03;4.63;;;;;;;7.67;85.05;96172.63;5032967;28;20201;-63
2022/04/05 09:33:31;;;;;;;5.63;4.70;;;;;;;7.56;83.89;96175.97;5034107;28;20261;-63
2022/04/05 09:36:09;;;;;;;6.63;4.97;;;;;;;7.83;83.36;96171.97;5034548;28;20190;-63
2022/04/05 09:38:36;;;;;;;6.73;4.77;;;;;;;7.92;83.62;96177.63;5032591;28;20171;-63
2022/04/05 09:41:21;;;;;;;5.40;4.33;;;;;;;7.96;84.41;96176.19;5016475;28;20659;-64
2022/04/05 09:43:56;;;;;;;6.40;4.90;;;;;;;7.76;82.73;96173.88;5033929;28;20740;-63
2022/04/05 09:46:22;;;;;;;5.30;4.60;;;;;;;7.71;84.11;96172.94;5034192;28;20178;-63
2022/04/05 09:48:59;;;;;;;7.37;5.20;;;;;;;7.92;82.44;96172.44;5033898;28;20174;-63
2022/04/05 09:51:25;;;;;;;8.67;4.90;;;;;;;7.81;82.64;96166.16;5033941;28;20178;-63
2022/04/05 09:53:54;;;;;;;5.17;4.67;;;;;;;7.86;81.63;96174.13;5033653;28;20325;-62
2022/04/05 09:56:30;;;;;;;6.87;4.53;;;;;;;7.88;82.68;96169.47;5032938;28;20547;-64
2022/04/05 09:59:13;;;;;;;5.63;5.03;;;;;;;7.78;83.44;96178.88;5031662;28;20175;-63
2022/04/05 10:01:39;;;;;;;5.33;4.50;;;;;;;7.72;85.15;96185.78;5033652;28;20223;-63
2022/04/05 10:04:11;;;;;;;5.60;5.10;;;;;;;8.10;84.16;96176.75;5033176;28;20221;-63
2022/04/05 10:06:41;;;;;;;5.70;4.93;;;;;;;8.01;83.34;96191.97;5033421;28;20193;-63
2022/04/05 10:09:07;;;;;;;6.40;4.90;;;;;;;7.90;84.69;96190.13;5032378;28;20229;-63
2022/04/05 10:11:38;;;;;;;5.23;4.73;;;;;;;7.73;85.70;96194.41;5029344;28;20256;-63
2022/04/05 10:14:04;;;;;;;7.90;5.43;;;;;;;7.73;88.34;96192.59;5033223;28;20183;-63
2022/04/05 10:16:31;;;;;;;5.63;4.60;;;;;;;7.72;88.67;96192.81;5033041;28;20179;-63
2022/04/05 10:19:01;;;;;;;4.97;4.47;;;;;;;7.89;88.22;96196.38;5032257;28;20190;-64
2022/04/05 10:21:28;;;;;;;6.60;5.20;;;;;;;7.90;88.10;96193.53;5021263;28;20201;-64
2022/04/05 10:23:55;;;;;;;5.03;4.50;;;;;;;7.86;88.35;96192.38;5031121;28;20202;-63
2022/04/05 10:26:26;;;;;;;5.20;4.60;;;;;;;7.82;90.89;96193.06;5030811;28;20190;-64
2022/04/05 10:28:53;;;;;;;6.63;5.07;;;;;;;7.87;88.94;96193.19;5031116;28;20171;-62
2022/04/05 10:31:37;;;;;;;5.40;4.63;;;;;;;7.89;88.82;96188.53;5032874;28;20203;-64
2022/04/05 10:34:22;;;;;;;6.03;4.80;;;;;;;8.01;91.52;96191.16;5033292;28;20182;-63
2022/04/05 10:37:12;;;;;;;5.17;4.67;;;;;;;7.89;88.44;96196.38;5033163;28;20643;-63
2022/04/05 10:39:39;;;;;;;7.73;5.40;;;;;;;8.06;88.91;96191.28;5032888;28;20300;-63
2022/04/05 10:42:15;;;;;;;8.40;5.00;;;;;;;7.88;91.27;96192.16;5014570;28;20595;-64
2022/04/05 10:44:53;;;;;;;7.67;5.07;;;;;;;8.02;91.41;96187.56;5025077;28;20237;-64
2022/04/05 10:47:19;;;;;;;6.83;5.03;;;;;;;7.84;94.03;96180.59;5033036;28;20202;-64
2022/04/05 10:49:47;;;;;;;6.10;4.53;;;;;;;7.77;94.02;96185.09;5032936;28;20206;-64
2022/04/05 10:52:20;;;;;;;7.37;5.37;;;;;;;7.93;92.41;96179.25;5032882;28;20667;-64
2022/04/05 10:55:05;;;;;;;7.23;5.33;;;;;;;7.81;93.50;96181.81;5033042;28;20202;-63
2022/04/05 10:57:34;;;;;;;7.10;5.57;;;;;;;7.91;91.43;96181.28;5032532;28;20213;-63
2022/04/05 11:00:18;;;;;;;8.60;5.47;;;;;;;7.63;92.77;96184.53;5018539;28;20613;-63
2022/04/05 11:02:53;;;;;;;6.20;4.80;;;;;;;7.73;92.47;96182.16;5033174;28;20692;-63
2022/04/05 11:05:19;;;;;;;5.00;4.50;;;;;;;7.89;92.74;96178.09;5026786;28;20213;-63
2022/04/05 11:07:53;;;;;;;15.17;4.67;;;;;;;8.07;91.38;96178.03;5032322;28;20217;-64
2022/04/05 11:10:27;;;;;;;7.37;5.00;;;;;;;8.07;91.07;96175.41;5022191;28;20236;-63
2022/04/05 11:13:13;;;;;;;5.80;4.60;;;;;;;8.14;91.19;96176.09;5031923;28;20202;-63
2022/04/05 11:15:50;;;;;;;7.30;5.03;;;;;;;8.36;89.50;96175.56;5032548;28;20186;-64
2022/04/05 11:18:20;;;;;;;9.70;4.90;;;;;;;8.42;90.42;96183.28;5032165;28;20186;-63
2022/04/05 11:20:47;;;;;;;5.73;4.13;;;;;;;8.36;92.23;96178.97;5032110;28;20212;-63
2022/04/05 11:23:15;;;;;;;6.17;4.17;;;;;;;8.39;91.77;96170.69;5031269;28;20198;-63
2022/04/05 11:25:42;;;;;;;4.90;4.30;;;;;;;8.48;93.29;96169.31;5030971;28;20214;-64
2022/04/05 11:28:20;;;;;;;4.73;4.30;;;;;;;8.42;92.91;96164.19;5031137;28;20182;-64
2022/04/05 11:30:48;;;;;;;6.57;4.03;;;;;;;8.41;96.73;96170.47;5030846;28;20178;-63
2022/04/05 11:33:21;;;;;;;4.93;4.03;;;;;;;8.59;94.98;96176.34;5012817;28;20587;-63
2022/04/05 11:35:55;;;;;;;4.87;4.37;;;;;;;8.52;94.44;96167.84;5030570;28;20170;-63
2022/04/05 11:38:21;;;;;;;5.93;4.57;;;;;;;8.45;94.46;96177.63;5016468;28;20236;-64
2022/04/05 11:40:57;;;;;;;4.67;4.20;;;;;;;8.44;93.80;96170.78;5032114;28;20649;-64
2022/04/05 11:43:28;;;;;;;6.97;4.40;;;;;;;8.64;92.47;96171.22;5030919;28;20194;-63
2022/04/05 11:45:56;;;;;;;4.90;4.40;;;;;;;8.67;91.64;96172.59;5003844;28;20506;-63
2022/04/05 11:48:26;;;;;;;5.43;4.93;;;;;;;8.92;90.35;96172.31;5013992;28;20252;-64
2022/04/05 11:50:52;;;;;;;5.10;4.60;;;;;;;9.01;87.94;96170.94;5032154;28;20199;-63
2022/04/05 11:53:22;;;;;;;5.27;4.13;;;;;;;8.87;88.92;96164.38;5032003;28;20597;-63
2022/04/05 11:56:14;;;;;;;8.07;4.63;;;;;;;8.89;88.88;96168.34;5030889;28;20187;-63
2022/04/05 11:58:42;;;;;;;6.20;4.50;;;;;;;8.93;88.07;96163.44;5027355;28;20170;-63
2022/04/05 12:01:10;;;;;;;4.90;4.40;;;;;;;8.97;87.33;96175.81;5031311;28;20226;-63
2022/04/05 12:03:50;;;;;;;6.37;4.47;;;;;;;9.06;88.68;96171.03;5030942;28;20200;-64
2022/04/05 12:06:23;;;;;;;4.77;4.23;;;;;;;9.14;86.79;96158.38;5025149;28;20269;-63
2022/04/05 12:08:53;;;;;;;5.23;4.50;;;;;;;9.17;87.93;96165.78;5031568;28;20195;-63
2022/04/05 12:11:22;;;;;;;7.97;4.80;;;;;;;9.18;86.58;96164.75;5031303;28;20189;-63
2022/04/05 12:13:58;;;;;;;5.40;4.60;;;;;;;9.02;86.80;96159.47;5031212;28;20187;-64
2022/04/05 12:16:29;;;;;;;6.07;4.80;;;;;;;9.43;86.46;96166.25;5031801;28;20221;-63
2022/04/05 12:18:56;;;;;;;5.83;4.50;;;;;;;9.64;84.60;96162.19;5031810;28;20187;-63
2022/04/05 12:21:24;;;;;;;8.77;4.20;;;;;;;9.98;83.16;96166.38;5031248;28;20194;-61
2022/04/05 12:23:52;;;;;;;4.50;4.07;;;;;;;10.15;82.64;96164.56;5030743;28;20206;-62
2022/04/05 12:26:23;;;;;;;5.10;4.60;;;;;;;10.56;82.95;96155.50;5029543;28;20219;-62
2022/04/05 12:28:59;;;;;;;7.37;4.63;;;;;;;10.61;82.43;96160.03;5034819;28;20606;-63
2022/04/05 12:31:30;;;;;;;4.60;4.13;;;;;;;10.70;81.87;96154.13;5034584;28;20186;-64
2022/04/05 12:33:59;;;;;;;4.60;4.20;;;;;;;10.92;81.03;96154.16;5034158;28;20171;-63
2022/04/05 12:36:31;;;;;;;5.63;4.90;;;;;;;11.08;83.54;96157.75;5035380;28;20182;-63